sensor_id;sensor_type;location;lat;lon;timestamp;pressure;altitude;pressure_sealevel;temperature;humidity
56052;BME280;41919;42.648;23.384;2023-02-17T00:00:57;95498.19;;;4.45;52.72
56052;BME280;41919;42.648;23.384;2023-02-17T00:03:23;95493.03;;;4.45;53.17
56052;BME280;41919;42.648;23.384;2023-02-17T00:05:48;95484.84;;;4.49;52.96
56052;BME280;41919;42.648;23.384;2023-02-17T00:08:14;95491.22;;;4.55;52.92
56052;BME280;41919;42.648;23.384;2023-02-17T00:10:39;95410.78;;;4.11;52.76
56052;BME280;41919;42.648;23.384;2023-02-17T00:13:05;95483.47;;;4.55;52.69
56052;BME280;41919;42.648;23.384;2023-02-17T00:15:30;95483.69;;;4.62;52.51
56052;BME280;41919;42.648;23.384;2023-02-17T00:17:55;95491.19;;;4.65;52.45
56052;BME280;41919;42.648;23.384;2023-02-17T00:20:21;95470.94;;;4.50;52.46
56052;BME280;41919;42.648;23.384;2023-02-17T00:22:46;95484.50;;;4.35;53.19
56052;BME280;41919;42.648;23.384;2023-02-17T00:25:12;95487.25;;;4.23;53.69
56052;BME280;41919;42.648;23.384;2023-02-17T00:27:37;95400.13;;;3.86;53.46
56052;BME280;41919;42.648;23.384;2023-02-17T00:30:03;95469.28;;;4.31;53.06
56052;BME280;41919;42.648;23.384;2023-02-17T00:32:29;95475.78;;;4.36;52.91
56052;BME280;41919;42.648;23.384;2023-02-17T00:34:54;95456.34;;;4.31;52.99
56052;BME280;41919;42.648;23.384;2023-02-17T00:37:22;95469.28;;;4.31;53.14
56052;BME280;41919;42.648;23.384;2023-02-17T00:39:47;95459.59;;;4.34;53.21
56052;BME280;41919;42.648;23.384;2023-02-17T00:42:13;95388.00;;;3.87;53.04
56052;BME280;41919;42.648;23.384;2023-02-17T00:44:38;95377.25;;;3.91;52.87
56052;BME280;41919;42.648;23.384;2023-02-17T00:47:04;95370.44;;;3.90;52.95
56052;BME280;41919;42.648;23.384;2023-02-17T00:49:29;95393.09;;;4.06;52.88
56052;BME280;41919;42.648;23.384;2023-02-17T00:51:58;95462.09;;;4.53;52.56
56052;BME280;41919;42.648;23.384;2023-02-17T00:54:23;95466.00;;;4.57;52.19
56052;BME280;41919;42.648;23.384;2023-02-17T00:56:49;95457.00;;;4.61;51.95
56052;BME280;41919;42.648;23.384;2023-02-17T00:59:14;95388.56;;;4.18;51.59
56052;BME280;41919;42.648;23.384;2023-02-17T01:01:40;95395.44;;;4.27;51.58
56052;BME280;41919;42.648;23.384;2023-02-17T01:04:05;95437.25;;;4.32;51.58
56052;BME280;41919;42.648;23.384;2023-02-17T01:06:35;95453.97;;;4.38;51.74
56052;BME280;41919;42.648;23.384;2023-02-17T01:09:02;95416.22;;;3.80;51.90
56052;BME280;41919;42.648;23.384;2023-02-17T01:11:29;95449.69;;;3.82;52.69
56052;BME280;41919;42.648;23.384;2023-02-17T01:13:55;95363.03;;;3.11;53.08
56052;BME280;41919;42.648;23.384;2023-02-17T01:16:25;95389.53;;;3.03;54.25
56052;BME280;41919;42.648;23.384;2023-02-17T01:18:51;95451.25;;;3.45;54.40
56052;BME280;41919;42.648;23.384;2023-02-17T01:21:18;95370.78;;;3.01;54.31
56052;BME280;41919;42.648;23.384;2023-02-17T01:23:44;95458.16;;;3.54;54.82
56052;BME280;41919;42.648;23.384;2023-02-17T01:26:14;95363.56;;;2.95;55.41
56052;BME280;41919;42.648;23.384;2023-02-17T01:28:40;95370.63;;;3.03;54.98
56052;BME280;41919;42.648;23.384;2023-02-17T01:31:07;95442.63;;;3.54;55.13
56052;BME280;41919;42.648;23.384;2023-02-17T01:33:32;95432.72;;;3.60;55.16
56052;BME280;41919;42.648;23.384;2023-02-17T01:36:07;95357.72;;;3.22;55.49
56052;BME280;41919;42.648;23.384;2023-02-17T01:38:34;95449.41;;;3.75;55.49
56052;BME280;41919;42.648;23.384;2023-02-17T01:41:00;95439.88;;;3.76;55.19
56052;BME280;41919;42.648;23.384;2023-02-17T01:43:25;95391.25;;;3.51;54.80
56052;BME280;41919;42.648;23.384;2023-02-17T01:45:53;95371.41;;;3.42;54.52
56052;BME280;41919;42.648;23.384;2023-02-17T01:48:30;95354.25;;;3.41;54.33
56052;BME280;41919;42.648;23.384;2023-02-17T01:51:06;95368.44;;;3.27;54.76
56052;BME280;41919;42.648;23.384;2023-02-17T01:53:42;95434.88;;;3.74;54.86
56052;BME280;41919;42.648;23.384;2023-02-17T01:56:10;95430.91;;;3.70;54.90
56052;BME280;41919;42.648;23.384;2023-02-17T01:58:39;95376.19;;;3.27;55.01
56052;BME280;41919;42.648;23.384;2023-02-17T02:01:06;95447.94;;;3.63;54.89
56052;BME280;41919;42.648;23.384;2023-02-17T02:03:34;95451.59;;;3.60;55.02
56052;BME280;41919;42.648;23.384;2023-02-17T02:06:04;95366.56;;;3.10;54.85
56052;BME280;41919;42.648;23.384;2023-02-17T02:08:40;95429.06;;;3.33;55.41
56052;BME280;41919;42.648;23.384;2023-02-17T02:11:09;95375.25;;;2.99;55.34
56052;BME280;41919;42.648;23.384;2023-02-17T02:13:35;95382.72;;;3.02;55.68
56052;BME280;41919;42.648;23.384;2023-02-17T02:16:15;95417.94;;;3.23;55.83
56052;BME280;41919;42.648;23.384;2023-02-17T02:29:57;95437.06;;;2.71;59.08
56052;BME280;41919;42.648;23.384;2023-02-17T02:35:33;95428.66;;;2.19;61.29
56052;BME280;41919;42.648;23.384;2023-02-17T02:38:09;95434.16;;;2.05;62.38
56052;BME280;41919;42.648;23.384;2023-02-17T02:40:42;95368.72;;;1.55;63.03
56052;BME280;41919;42.648;23.384;2023-02-17T02:43:08;95432.44;;;2.15;62.45
56052;BME280;41919;42.648;23.384;2023-02-17T02:45:34;95441.03;;;2.25;62.15
56052;BME280;41919;42.648;23.384;2023-02-17T02:48:00;95438.44;;;2.25;62.29
56052;BME280;41919;42.648;23.384;2023-02-17T02:53:11;95365.63;;;2.02;61.42
56052;BME280;41919;42.648;23.384;2023-02-17T02:55:51;95440.03;;;2.57;61.25
56052;BME280;41919;42.648;23.384;2023-02-17T02:58:21;95347.13;;;1.87;61.53
56052;BME280;41919;42.648;23.384;2023-02-17T03:03:34;95448.13;;;2.43;62.13
56052;BME280;41919;42.648;23.384;2023-02-17T03:06:21;95440.81;;;2.38;62.59
56052;BME280;41919;42.648;23.384;2023-02-17T03:08:59;95366.84;;;1.98;62.53
56052;BME280;41919;42.648;23.384;2023-02-17T03:11:28;95440.44;;;2.52;61.82
56052;BME280;41919;42.648;23.384;2023-02-17T03:14:14;95360.75;;;2.09;61.95
56052;BME280;41919;42.648;23.384;2023-02-17T03:16:41;95360.78;;;2.19;61.66
56052;BME280;41919;42.648;23.384;2023-02-17T03:19:08;95380.50;;;2.29;61.38
56052;BME280;41919;42.648;23.384;2023-02-17T03:21:38;95445.03;;;2.49;61.85
56052;BME280;41919;42.648;23.384;2023-02-17T03:24:04;95374.31;;;1.70;62.92
56052;BME280;41919;42.648;23.384;2023-02-17T03:26:30;95439.09;;;2.18;62.84
56052;BME280;41919;42.648;23.384;2023-02-17T03:28:55;95374.50;;;1.79;63.13
56052;BME280;41919;42.648;23.384;2023-02-17T03:31:21;95367.94;;;1.74;62.99
56052;BME280;41919;42.648;23.384;2023-02-17T03:33:47;95447.31;;;2.32;62.74
56052;BME280;41919;42.648;23.384;2023-02-17T03:36:13;95445.38;;;2.25;62.96
56052;BME280;41919;42.648;23.384;2023-02-17T03:38:38;95417.72;;;1.96;63.50
56052;BME280;41919;42.648;23.384;2023-02-17T03:41:04;95361.34;;;1.51;63.29
56052;BME280;41919;42.648;23.384;2023-02-17T03:43:29;95378.06;;;1.56;62.99
56052;BME280;41919;42.648;23.384;2023-02-17T03:45:55;95439.81;;;1.68;63.73
56052;BME280;41919;42.648;23.384;2023-02-17T03:48:20;95371.53;;;0.89;65.56
56052;BME280;41919;42.648;23.384;2023-02-17T03:50:45;95361.97;;;0.80;66.48
56052;BME280;41919;42.648;23.384;2023-02-17T03:53:11;95419.47;;;1.23;67.53
56052;BME280;41919;42.648;23.384;2023-02-17T03:55:37;95431.41;;;1.24;67.97
56052;BME280;41919;42.648;23.384;2023-02-17T03:58:02;95439.81;;;1.26;68.07
56052;BME280;41919;42.648;23.384;2023-02-17T04:00:28;95391.22;;;1.11;67.73
56052;BME280;41919;42.648;23.384;2023-02-17T04:02:53;95417.59;;;1.25;68.06
56052;BME280;41919;42.648;23.384;2023-02-17T04:05:21;95435.53;;;1.36;68.17
56052;BME280;41919;42.648;23.384;2023-02-17T04:07:47;95380.09;;;1.11;67.87
56052;BME280;41919;42.648;23.384;2023-02-17T04:10:13;95423.91;;;1.42;68.22
56052;BME280;41919;42.648;23.384;2023-02-17T04:12:38;95438.75;;;1.49;68.09
56052;BME280;41919;42.648;23.384;2023-02-17T04:15:04;95451.69;;;1.59;67.91
56052;BME280;41919;42.648;23.384;2023-02-17T04:17:30;95441.47;;;1.69;67.46
56052;BME280;41919;42.648;23.384;2023-02-17T04:19:55;95377.72;;;1.40;67.19
56052;BME280;41919;42.648;23.384;2023-02-17T04:22:21;95426.75;;;1.81;67.04
56052;BME280;41919;42.648;23.384;2023-02-17T04:24:46;95426.34;;;1.85;66.84
56052;BME280;41919;42.648;23.384;2023-02-17T04:27:11;95377.13;;;1.58;65.80
56052;BME280;41919;42.648;23.384;2023-02-17T04:29:37;95449.97;;;2.21;65.35
56052;BME280;41919;42.648;23.384;2023-02-17T04:32:02;95380.19;;;1.82;65.27
56052;BME280;41919;42.648;23.384;2023-02-17T04:34:28;95439.66;;;2.21;64.67
56052;BME280;41919;42.648;23.384;2023-02-17T04:36:53;95436.09;;;2.12;64.97
56052;BME280;41919;42.648;23.384;2023-02-17T04:39:19;95435.03;;;2.15;64.98
56052;BME280;41919;42.648;23.384;2023-02-17T04:41:44;95440.03;;;2.16;65.12
56052;BME280;41919;42.648;23.384;2023-02-17T04:44:10;95447.91;;;2.15;65.29
56052;BME280;41919;42.648;23.384;2023-02-17T04:46:35;95441.72;;;2.27;64.75
56052;BME280;41919;42.648;23.384;2023-02-17T04:49:00;95404.47;;;2.20;64.53
56052;BME280;41919;42.648;23.384;2023-02-17T04:51:26;95354.59;;;1.90;64.63
56052;BME280;41919;42.648;23.384;2023-02-17T04:53:51;95358.03;;;2.10;63.84
56052;BME280;41919;42.648;23.384;2023-02-17T04:56:17;95400.47;;;2.47;63.40
56052;BME280;41919;42.648;23.384;2023-02-17T04:58:42;95437.59;;;2.55;64.05
56052;BME280;41919;42.648;23.384;2023-02-17T05:01:08;95440.44;;;2.62;63.72
56052;BME280;41919;42.648;23.384;2023-02-17T05:03:33;95379.53;;;2.21;63.51
56052;BME280;41919;42.648;23.384;2023-02-17T05:05:59;95446.84;;;2.78;62.89
56052;BME280;41919;42.648;23.384;2023-02-17T05:08:24;95387.19;;;2.42;62.41
56052;BME280;41919;42.648;23.384;2023-02-17T05:10:51;95454.59;;;2.78;62.12
56052;BME280;41919;42.648;23.384;2023-02-17T05:13:17;95394.16;;;2.20;62.44
56052;BME280;41919;42.648;23.384;2023-02-17T05:15:44;95459.31;;;2.22;64.19
56052;BME280;41919;42.648;23.384;2023-02-17T05:18:10;95452.56;;;2.21;64.26
56052;BME280;41919;42.648;23.384;2023-02-17T05:20:35;95405.09;;;2.03;63.78
56052;BME280;41919;42.648;23.384;2023-02-17T05:23:01;95376.44;;;1.86;63.40
56052;BME280;41919;42.648;23.384;2023-02-17T05:25:26;95394.69;;;2.14;62.37
56052;BME280;41919;42.648;23.384;2023-02-17T05:27:52;95486.66;;;2.65;61.83
56052;BME280;41919;42.648;23.384;2023-02-17T05:30:17;95356.69;;;1.66;61.97
56052;BME280;41919;42.648;23.384;2023-02-17T05:32:43;95464.09;;;2.17;62.73
56052;BME280;41919;42.648;23.384;2023-02-17T05:35:08;95474.88;;;1.80;64.21
56052;BME280;41919;42.648;23.384;2023-02-17T05:37:34;95416.97;;;1.53;64.68
56052;BME280;41919;42.648;23.384;2023-02-17T05:40:00;95487.31;;;1.96;64.51
56052;BME280;41919;42.648;23.384;2023-02-17T05:42:25;95487.63;;;2.03;64.74
56052;BME280;41919;42.648;23.384;2023-02-17T05:44:54;95435.72;;;1.86;63.94
56052;BME280;41919;42.648;23.384;2023-02-17T05:47:20;95496.91;;;2.46;63.83
56052;BME280;41919;42.648;23.384;2023-02-17T05:49:46;95495.41;;;2.53;63.10
56052;BME280;41919;42.648;23.384;2023-02-17T05:52:11;95505.41;;;2.67;62.88
56052;BME280;41919;42.648;23.384;2023-02-17T05:54:37;95502.72;;;2.88;61.58
56052;BME280;41919;42.648;23.384;2023-02-17T05:57:02;95493.16;;;2.69;60.99
56052;BME280;41919;42.648;23.384;2023-02-17T05:59:28;95492.47;;;2.58;62.42
56052;BME280;41919;42.648;23.384;2023-02-17T06:01:53;95501.91;;;2.88;61.86
56052;BME280;41919;42.648;23.384;2023-02-17T06:04:19;95487.25;;;2.98;61.87
56052;BME280;41919;42.648;23.384;2023-02-17T06:06:44;95426.38;;;2.96;60.52
56052;BME280;41919;42.648;23.384;2023-02-17T06:09:09;95449.19;;;3.29;59.99
56052;BME280;41919;42.648;23.384;2023-02-17T06:11:35;95487.88;;;4.35;57.63
56052;BME280;41919;42.648;23.384;2023-02-17T06:14:00;95463.56;;;4.83;59.22
56052;BME280;41919;42.648;23.384;2023-02-17T06:16:26;95498.38;;;4.71;54.63
56052;BME280;41919;42.648;23.384;2023-02-17T06:18:51;95502.06;;;4.31;57.78
56052;BME280;41919;42.648;23.384;2023-02-17T06:21:17;95446.44;;;4.45;61.25
56052;BME280;41919;42.648;23.384;2023-02-17T06:23:42;95375.03;;;3.97;56.46
56052;BME280;41919;42.648;23.384;2023-02-17T06:26:08;95430.50;;;4.49;53.84
56052;BME280;41919;42.648;23.384;2023-02-17T06:28:33;95497.84;;;5.31;53.15
56052;BME280;41919;42.648;23.384;2023-02-17T06:30:59;95509.94;;;5.40;52.24
56052;BME280;41919;42.648;23.384;2023-02-17T06:33:24;95450.16;;;5.06;51.76
56052;BME280;41919;42.648;23.384;2023-02-17T06:35:50;95437.06;;;5.43;50.61
56052;BME280;41919;42.648;23.384;2023-02-17T06:38:16;95516.88;;;6.46;49.15
56052;BME280;41919;42.648;23.384;2023-02-17T06:40:42;95509.97;;;7.05;47.82
56052;BME280;41919;42.648;23.384;2023-02-17T06:43:08;95478.72;;;7.56;45.83
56052;BME280;41919;42.648;23.384;2023-02-17T06:45:33;95507.75;;;8.90;44.34
56052;BME280;41919;42.648;23.384;2023-02-17T06:47:58;95505.38;;;9.66;42.85
56052;BME280;41919;42.648;23.384;2023-02-17T06:50:24;95507.13;;;10.49;40.18
56052;BME280;41919;42.648;23.384;2023-02-17T06:52:49;95516.19;;;11.13;38.81
56052;BME280;41919;42.648;23.384;2023-02-17T06:55:15;95512.56;;;11.14;38.51
56052;BME280;41919;42.648;23.384;2023-02-17T06:57:40;95514.72;;;11.25;38.50
56052;BME280;41919;42.648;23.384;2023-02-17T07:00:06;95524.25;;;11.69;37.28
56052;BME280;41919;42.648;23.384;2023-02-17T07:02:32;95507.91;;;11.46;37.50
56052;BME280;41919;42.648;23.384;2023-02-17T07:04:57;95469.16;;;11.99;36.52
56052;BME280;41919;42.648;23.384;2023-02-17T07:07:23;95473.09;;;12.45;35.57
56052;BME280;41919;42.648;23.384;2023-02-17T07:09:48;95465.31;;;13.13;34.72
56052;BME280;41919;42.648;23.384;2023-02-17T07:12:14;95476.00;;;13.93;33.36
56052;BME280;41919;42.648;23.384;2023-02-17T07:14:39;95393.50;;;14.14;31.77
56052;BME280;41919;42.648;23.384;2023-02-17T07:17:04;95459.38;;;14.66;31.75
56052;BME280;41919;42.648;23.384;2023-02-17T07:19:30;95511.78;;;15.26;31.31
56052;BME280;41919;42.648;23.384;2023-02-17T07:21:55;95512.22;;;15.23;31.44
56052;BME280;41919;42.648;23.384;2023-02-17T07:24:21;95464.97;;;15.73;30.36
56052;BME280;41919;42.648;23.384;2023-02-17T07:26:47;95466.28;;;16.58;29.46
56052;BME280;41919;42.648;23.384;2023-02-17T07:29:12;95510.53;;;17.18;28.56
56052;BME280;41919;42.648;23.384;2023-02-17T07:31:37;95519.72;;;17.15;28.10
56052;BME280;41919;42.648;23.384;2023-02-17T07:34:03;95512.88;;;18.29;26.04
56052;BME280;41919;42.648;23.384;2023-02-17T07:36:29;95519.94;;;18.47;25.23
56052;BME280;41919;42.648;23.384;2023-02-17T07:38:54;95517.25;;;18.35;25.14
56052;BME280;41919;42.648;23.384;2023-02-17T07:41:22;95470.47;;;17.81;25.53
56052;BME280;41919;42.648;23.384;2023-02-17T07:43:52;95525.25;;;19.34;24.47
56052;BME280;41919;42.648;23.384;2023-02-17T07:46:18;95521.63;;;19.24;24.06
56052;BME280;41919;42.648;23.384;2023-02-17T07:48:44;95528.84;;;19.28;23.68
56052;BME280;41919;42.648;23.384;2023-02-17T07:51:13;95505.78;;;19.81;23.60
56052;BME280;41919;42.648;23.384;2023-02-17T07:53:39;95520.44;;;19.72;23.34
56052;BME280;41919;42.648;23.384;2023-02-17T07:56:06;95519.09;;;20.83;22.34
56052;BME280;41919;42.648;23.384;2023-02-17T07:58:33;95456.25;;;17.94;25.08
56052;BME280;41919;42.648;23.384;2023-02-17T08:01:09;95517.94;;;16.91;27.20
56052;BME280;41919;42.648;23.384;2023-02-17T08:03:34;95514.38;;;17.52;26.94
56052;BME280;41919;42.648;23.384;2023-02-17T08:06:00;95521.97;;;18.21;25.59
56052;BME280;41919;42.648;23.384;2023-02-17T08:08:26;95465.31;;;17.56;25.98
56052;BME280;41919;42.648;23.384;2023-02-17T08:11:15;95512.53;;;17.83;26.16
56052;BME280;41919;42.648;23.384;2023-02-17T08:14:00;95500.72;;;16.88;27.07
56052;BME280;41919;42.648;23.384;2023-02-17T08:16:26;95531.13;;;17.76;26.16
56052;BME280;41919;42.648;23.384;2023-02-17T08:18:52;95464.34;;;18.35;25.70
56052;BME280;41919;42.648;23.384;2023-02-17T08:21:22;95470.41;;;19.75;23.64
56052;BME280;41919;42.648;23.384;2023-02-17T08:23:48;95510.31;;;21.04;22.51
56052;BME280;41919;42.648;23.384;2023-02-17T08:26:14;95517.47;;;22.51;21.18
56052;BME280;41919;42.648;23.384;2023-02-17T08:28:40;95516.69;;;22.56;20.85
56052;BME280;41919;42.648;23.384;2023-02-17T08:31:14;95440.06;;;21.66;20.98
56052;BME280;41919;42.648;23.384;2023-02-17T08:33:40;95516.25;;;22.69;20.83
56052;BME280;41919;42.648;23.384;2023-02-17T08:36:06;95451.34;;;22.91;19.76
56052;BME280;41919;42.648;23.384;2023-02-17T08:38:33;95458.78;;;23.42;19.43
56052;BME280;41919;42.648;23.384;2023-02-17T08:40:58;95491.41;;;23.01;19.92
56052;BME280;41919;42.648;23.384;2023-02-17T08:43:23;95472.19;;;22.51;19.97
56052;BME280;41919;42.648;23.384;2023-02-17T08:45:49;95498.56;;;21.93;20.92
56052;BME280;41919;42.648;23.384;2023-02-17T08:48:14;95504.72;;;23.01;19.83
56052;BME280;41919;42.648;23.384;2023-02-17T08:50:40;95503.91;;;23.59;19.32
56052;BME280;41919;42.648;23.384;2023-02-17T08:53:05;95460.06;;;22.76;19.77
56052;BME280;41919;42.648;23.384;2023-02-17T08:55:31;95433.31;;;22.56;19.86
56052;BME280;41919;42.648;23.384;2023-02-17T08:57:56;95480.38;;;22.45;20.45
56052;BME280;41919;42.648;23.384;2023-02-17T09:00:21;95486.69;;;22.76;19.90
56052;BME280;41919;42.648;23.384;2023-02-17T09:02:47;95448.94;;;23.58;18.86
56052;BME280;41919;42.648;23.384;2023-02-17T09:05:13;95445.25;;;23.79;18.88
56052;BME280;41919;42.648;23.384;2023-02-17T09:07:39;95477.59;;;24.03;19.05
56052;BME280;41919;42.648;23.384;2023-02-17T09:10:06;95492.53;;;23.84;18.69
56052;BME280;41919;42.648;23.384;2023-02-17T09:12:34;95453.41;;;23.26;19.68
56052;BME280;41919;42.648;23.384;2023-02-17T09:14:59;95452.13;;;23.60;19.23
56052;BME280;41919;42.648;23.384;2023-02-17T09:17:25;95505.63;;;24.11;18.42
56052;BME280;41919;42.648;23.384;2023-02-17T09:19:50;95500.72;;;23.67;18.74
56052;BME280;41919;42.648;23.384;2023-02-17T09:22:16;95489.47;;;22.92;19.90
56052;BME280;41919;42.648;23.384;2023-02-17T09:24:42;95485.47;;;21.60;20.44
56052;BME280;41919;42.648;23.384;2023-02-17T09:27:08;95423.06;;;19.84;22.43
56052;BME280;41919;42.648;23.384;2023-02-17T09:29:36;95451.69;;;20.16;22.71
56052;BME280;41919;42.648;23.384;2023-02-17T09:32:08;95446.63;;;19.97;22.79
56052;BME280;41919;42.648;23.384;2023-02-17T09:34:38;95424.59;;;19.80;22.78
56052;BME280;41919;42.648;23.384;2023-02-17T09:37:10;95472.84;;;20.62;22.29
56052;BME280;41919;42.648;23.384;2023-02-17T09:39:35;95481.53;;;21.18;21.72
56052;BME280;41919;42.648;23.384;2023-02-17T09:42:01;95439.88;;;20.80;21.61
56052;BME280;41919;42.648;23.384;2023-02-17T09:44:42;95428.03;;;20.31;22.07
56052;BME280;41919;42.648;23.384;2023-02-17T09:47:13;95430.78;;;20.36;21.68
56052;BME280;41919;42.648;23.384;2023-02-17T09:49:44;95490.59;;;20.61;22.29
56052;BME280;41919;42.648;23.384;2023-02-17T09:57:24;95420.47;;;19.72;22.78
56052;BME280;41919;42.648;23.384;2023-02-17T09:59:56;95462.88;;;20.18;22.33
56052;BME280;41919;42.648;23.384;2023-02-17T10:05:27;95411.19;;;20.60;21.50
56052;BME280;41919;42.648;23.384;2023-02-17T10:08:07;95420.63;;;20.16;21.86
56052;BME280;41919;42.648;23.384;2023-02-17T10:10:51;95394.44;;;18.95;22.47
56052;BME280;41919;42.648;23.384;2023-02-17T10:13:21;95422.78;;;18.59;20.93
56052;BME280;41919;42.648;23.384;2023-02-17T10:15:50;95451.91;;;18.59;20.80
56052;BME280;41919;42.648;23.384;2023-02-17T10:18:23;95392.75;;;17.71;21.46
56052;BME280;41919;42.648;23.384;2023-02-17T10:21:15;95460.19;;;17.73;21.57
56052;BME280;41919;42.648;23.384;2023-02-17T10:23:46;95407.59;;;17.30;21.91
56052;BME280;41919;42.648;23.384;2023-02-17T10:26:45;95450.03;;;17.58;22.20
56052;BME280;41919;42.648;23.384;2023-02-17T10:32:20;95437.81;;;17.76;22.01
56052;BME280;41919;42.648;23.384;2023-02-17T10:34:52;95432.59;;;17.57;21.59
56052;BME280;41919;42.648;23.384;2023-02-17T10:40:18;95425.97;;;17.36;21.85
56052;BME280;41919;42.648;23.384;2023-02-17T10:42:46;95361.50;;;16.77;22.18
56052;BME280;41919;42.648;23.384;2023-02-17T10:45:30;95425.31;;;17.11;22.25
56052;BME280;41919;42.648;23.384;2023-02-17T10:48:01;95427.13;;;16.73;22.71
56052;BME280;41919;42.648;23.384;2023-02-17T10:50:27;95351.31;;;15.88;22.99
56052;BME280;41919;42.648;23.384;2023-02-17T10:52:55;95401.66;;;15.80;23.65
56052;BME280;41919;42.648;23.384;2023-02-17T10:55:25;95418.75;;;15.71;24.15
56052;BME280;41919;42.648;23.384;2023-02-17T10:57:59;95408.22;;;15.71;23.72
56052;BME280;41919;42.648;23.384;2023-02-17T11:00:29;95405.09;;;15.55;24.13
56052;BME280;41919;42.648;23.384;2023-02-17T11:02:55;95412.38;;;15.21;24.73
56052;BME280;41919;42.648;23.384;2023-02-17T11:05:32;95389.59;;;15.02;24.83
56052;BME280;41919;42.648;23.384;2023-02-17T11:08:03;95337.69;;;15.09;28.98
56052;BME280;41919;42.648;23.384;2023-02-17T11:10:31;95421.84;;;15.93;30.87
56052;BME280;41919;42.648;23.384;2023-02-17T11:12:58;95402.88;;;15.84;26.24
56052;BME280;41919;42.648;23.384;2023-02-17T11:15:35;95389.38;;;15.67;27.79
56052;BME280;41919;42.648;23.384;2023-02-17T11:18:09;95352.03;;;15.45;24.47
56052;BME280;41919;42.648;23.384;2023-02-17T11:20:35;95352.31;;;15.37;24.87
56052;BME280;41919;42.648;23.384;2023-02-17T11:25:41;95398.50;;;15.07;25.29
56052;BME280;41919;42.648;23.384;2023-02-17T11:28:13;95331.09;;;14.55;26.23
56052;BME280;41919;42.648;23.384;2023-02-17T11:30:48;95332.72;;;14.62;26.62
56052;BME280;41919;42.648;23.384;2023-02-17T11:33:18;95391.72;;;14.86;26.34
56052;BME280;41919;42.648;23.384;2023-02-17T11:35:48;95393.06;;;14.96;25.92
56052;BME280;41919;42.648;23.384;2023-02-17T11:40:40;95379.81;;;15.09;26.14
56052;BME280;41919;42.648;23.384;2023-02-17T11:43:15;95316.91;;;14.69;26.21
56052;BME280;41919;42.648;23.384;2023-02-17T11:53:54;95390.13;;;15.17;27.19
56052;BME280;41919;42.648;23.384;2023-02-17T11:56:34;95312.16;;;14.84;26.96
56052;BME280;41919;42.648;23.384;2023-02-17T11:59:29;95373.22;;;15.32;25.92
56052;BME280;41919;42.648;23.384;2023-02-17T12:08:15;95361.47;;;15.34;26.82
56052;BME280;41919;42.648;23.384;2023-02-17T12:13:42;95366.84;;;15.14;26.95
56052;BME280;41919;42.648;23.384;2023-02-17T12:33:01;95336.81;;;15.22;27.45
56052;BME280;41919;42.648;23.384;2023-02-17T12:35:49;95286.34;;;15.00;27.14
56052;BME280;41919;42.648;23.384;2023-02-17T12:38:23;95315.28;;;15.32;26.91
56052;BME280;41919;42.648;23.384;2023-02-17T12:43:31;95327.81;;;15.36;26.78
56052;BME280;41919;42.648;23.384;2023-02-17T12:46:03;95254.97;;;15.23;26.69
56052;BME280;41919;42.648;23.384;2023-02-17T12:48:40;95306.56;;;15.56;26.44
56052;BME280;41919;42.648;23.384;2023-02-17T12:51:12;95310.53;;;15.65;26.07
56052;BME280;41919;42.648;23.384;2023-02-17T12:53:57;95303.06;;;15.37;26.38
56052;BME280;41919;42.648;23.384;2023-02-17T12:58:54;95311.22;;;15.04;26.55
56052;BME280;41919;42.648;23.384;2023-02-17T13:01:25;95287.72;;;14.77;26.78
56052;BME280;41919;42.648;23.384;2023-02-17T13:03:53;95239.44;;;14.51;27.31
56052;BME280;41919;42.648;23.384;2023-02-17T13:06:35;95247.84;;;14.35;27.07
56052;BME280;41919;42.648;23.384;2023-02-17T13:09:27;95255.94;;;14.34;27.62
56052;BME280;41919;42.648;23.384;2023-02-17T13:12:16;95294.81;;;14.70;27.39
56052;BME280;41919;42.648;23.384;2023-02-17T13:17:35;95312.16;;;14.84;27.35
56052;BME280;41919;42.648;23.384;2023-02-17T13:22:37;95299.66;;;15.05;27.08
56052;BME280;41919;42.648;23.384;2023-02-17T13:25:03;95306.97;;;15.03;26.80
56052;BME280;41919;42.648;23.384;2023-02-17T13:27:32;95239.09;;;14.80;26.98
56052;BME280;41919;42.648;23.384;2023-02-17T13:32:32;95296.78;;;15.13;26.37
56052;BME280;41919;42.648;23.384;2023-02-17T13:35:00;95282.59;;;15.14;26.29
56052;BME280;41919;42.648;23.384;2023-02-17T13:39:59;95277.78;;;15.11;26.32
56052;BME280;41919;42.648;23.384;2023-02-17T13:44:57;95227.25;;;14.96;25.96
56052;BME280;41919;42.648;23.384;2023-02-17T13:47:34;95286.84;;;15.40;25.72
56052;BME280;41919;42.648;23.384;2023-02-17T13:50:00;95279.28;;;15.25;25.32
56052;BME280;41919;42.648;23.384;2023-02-17T13:52:28;95258.72;;;15.09;24.87
56052;BME280;41919;42.648;23.384;2023-02-17T13:55:01;95284.53;;;15.25;24.80
56052;BME280;41919;42.648;23.384;2023-02-17T14:00:18;95273.25;;;15.18;24.47
56052;BME280;41919;42.648;23.384;2023-02-17T14:02:55;95235.25;;;14.82;24.47
56052;BME280;41919;42.648;23.384;2023-02-17T14:07:59;95287.38;;;15.24;24.30
56052;BME280;41919;42.648;23.384;2023-02-17T14:10:27;95226.13;;;14.85;24.17
56052;BME280;41919;42.648;23.384;2023-02-17T14:12:53;95237.34;;;14.99;23.94
56052;BME280;41919;42.648;23.384;2023-02-17T14:15:23;95224.25;;;14.67;24.10
56052;BME280;41919;42.648;23.384;2023-02-17T14:17:49;95296.22;;;15.11;23.82
56052;BME280;41919;42.648;23.384;2023-02-17T14:20:33;95210.03;;;14.68;24.55
56052;BME280;41919;42.648;23.384;2023-02-17T14:25:28;95281.66;;;14.70;25.94
56052;BME280;41919;42.648;23.384;2023-02-17T14:27:54;95293.38;;;14.74;26.51
56052;BME280;41919;42.648;23.384;2023-02-17T14:35:31;95229.84;;;13.87;27.00
56052;BME280;41919;42.648;23.384;2023-02-17T14:38:21;95304.31;;;14.26;27.63
56052;BME280;41919;42.648;23.384;2023-02-17T14:40:48;95306.53;;;14.29;27.82
56052;BME280;41919;42.648;23.384;2023-02-17T14:43:13;95304.34;;;14.12;28.11
56052;BME280;41919;42.648;23.384;2023-02-17T14:45:39;95246.84;;;13.78;28.38